sensor_id;sensor_type;location;lat;lon;timestamp;noise_LAeq;noise_LA_min;noise_LA_max;noise_LA01;noise_LA95
56099;Laerm;44276;49.534;6.378;2022-07-29T00:01:14;45.28;43.81;51.97;;
56099;Laerm;44276;49.534;6.378;2022-07-29T00:03:45;44.99;43.72;47.32;;
56099;Laerm;44276;49.534;6.378;2022-07-29T00:06:15;46.16;43.86;56.46;;
56099;Laerm;44276;49.534;6.378;2022-07-29T00:08:43;45.70;43.86;55.17;;
56099;Laerm;44276;49.534;6.378;2022-07-29T00:11:11;45.35;44.01;50.60;;
56099;Laerm;44276;49.534;6.378;2022-07-29T00:13:40;44.99;43.68;47.24;;
56099;Laerm;44276;49.534;6.378;2022-07-29T00:16:12;45.06;43.86;48.98;;
56099;Laerm;44276;49.534;6.378;2022-07-29T00:18:40;45.84;43.81;53.73;;
56099;Laerm;44276;49.534;6.378;2022-07-29T00:21:09;44.94;43.85;46.13;;
56099;Laerm;44276;49.534;6.378;2022-07-29T00:23:38;45.02;43.86;48.18;;
56099;Laerm;44276;49.534;6.378;2022-07-29T00:26:06;44.95;43.77;46.50;;
56099;Laerm;44276;49.534;6.378;2022-07-29T00:28:35;45.00;43.80;48.23;;
56099;Laerm;44276;49.534;6.378;2022-07-29T00:31:03;45.01;43.63;47.08;;
56099;Laerm;44276;49.534;6.378;2022-07-29T00:33:31;45.04;43.72;50.27;;
56099;Laerm;44276;49.534;6.378;2022-07-29T00:35:59;45.00;43.81;47.68;;
56099;Laerm;44276;49.534;6.378;2022-07-29T00:38:26;44.97;43.72;46.95;;
56099;Laerm;44276;49.534;6.378;2022-07-29T00:40:56;45.28;43.54;51.37;;
56099;Laerm;44276;49.534;6.378;2022-07-29T00:43:24;44.98;43.72;48.13;;
56099;Laerm;44276;49.534;6.378;2022-07-29T00:45:52;44.90;43.94;45.94;;
56099;Laerm;44276;49.534;6.378;2022-07-29T00:48:20;45.35;43.68;52.71;;
56099;Laerm;44276;49.534;6.378;2022-07-29T00:50:49;45.17;43.81;50.15;;
56099;Laerm;44276;49.534;6.378;2022-07-29T00:53:19;45.08;43.86;48.63;;
56099;Laerm;44276;49.534;6.378;2022-07-29T00:55:48;44.89;43.86;46.23;;
56099;Laerm;44276;49.534;6.378;2022-07-29T00:58:19;44.96;43.77;47.28;;
56099;Laerm;44276;49.534;6.378;2022-07-29T01:00:48;44.94;43.72;47.11;;
56099;Laerm;44276;49.534;6.378;2022-07-29T01:03:16;44.91;43.90;46.86;;
56099;Laerm;44276;49.534;6.378;2022-07-29T01:05:46;45.18;43.72;51.03;;
56099;Laerm;44276;49.534;6.378;2022-07-29T01:08:19;44.97;43.72;47.32;;
56099;Laerm;44276;49.534;6.378;2022-07-29T01:10:49;45.85;43.86;52.13;;
56099;Laerm;44276;49.534;6.378;2022-07-29T01:13:20;45.04;43.63;50.02;;
56099;Laerm;44276;49.534;6.378;2022-07-29T01:15:56;44.88;43.81;45.94;;
56099;Laerm;44276;49.534;6.378;2022-07-29T01:18:34;44.88;43.72;45.91;;
56099;Laerm;44276;49.534;6.378;2022-07-29T01:21:27;48.43;43.77;58.00;;
56099;Laerm;44276;49.534;6.378;2022-07-29T01:24:33;44.87;43.63;46.43;;
56099;Laerm;44276;49.534;6.378;2022-07-29T01:27:18;44.94;43.90;47.22;;
56099;Laerm;44276;49.534;6.378;2022-07-29T01:29:59;44.97;43.77;48.02;;
56099;Laerm;44276;49.534;6.378;2022-07-29T01:32:36;44.86;43.54;47.02;;
56099;Laerm;44276;49.534;6.378;2022-07-29T01:35:10;44.99;43.49;47.28;;
56099;Laerm;44276;49.534;6.378;2022-07-29T01:37:49;45.29;43.77;51.54;;
56099;Laerm;44276;49.534;6.378;2022-07-29T01:40:22;44.93;43.68;47.40;;
56099;Laerm;44276;49.534;6.378;2022-07-29T01:42:54;44.90;43.80;47.79;;
56099;Laerm;44276;49.534;6.378;2022-07-29T01:45:31;45.00;43.77;47.98;;
56099;Laerm;44276;49.534;6.378;2022-07-29T01:48:15;44.95;43.72;48.60;;
56099;Laerm;44276;49.534;6.378;2022-07-29T01:50:49;44.78;43.58;46.10;;
56099;Laerm;44276;49.534;6.378;2022-07-29T01:53:33;44.83;43.77;46.95;;
56099;Laerm;44276;49.534;6.378;2022-07-29T01:56:04;44.81;43.77;46.48;;
56099;Laerm;44276;49.534;6.378;2022-07-29T01:58:36;44.96;43.77;48.61;;
56099;Laerm;44276;49.534;6.378;2022-07-29T02:01:09;44.81;43.63;46.15;;
56099;Laerm;44276;49.534;6.378;2022-07-29T02:03:43;45.36;43.63;51.24;;
56099;Laerm;44276;49.534;6.378;2022-07-29T02:06:16;45.15;43.77;51.79;;
56099;Laerm;44276;49.534;6.378;2022-07-29T02:08:48;45.13;43.72;50.92;;
56099;Laerm;44276;49.534;6.378;2022-07-29T02:11:17;44.86;43.72;48.12;;
56099;Laerm;44276;49.534;6.378;2022-07-29T02:13:47;44.79;43.77;46.15;;
56099;Laerm;44276;49.534;6.378;2022-07-29T02:16:20;44.99;43.58;47.90;;
56099;Laerm;44276;49.534;6.378;2022-07-29T02:18:52;44.81;43.68;47.22;;
56099;Laerm;44276;49.534;6.378;2022-07-29T02:21:25;44.97;43.63;47.59;;
56099;Laerm;44276;49.534;6.378;2022-07-29T02:23:56;44.91;43.58;49.81;;
56099;Laerm;44276;49.534;6.378;2022-07-29T02:26:28;44.81;43.68;47.54;;
56099;Laerm;44276;49.534;6.378;2022-07-29T02:28:58;44.91;43.77;47.24;;
56099;Laerm;44276;49.534;6.378;2022-07-29T02:31:34;44.80;43.72;47.14;;
56099;Laerm;44276;49.534;6.378;2022-07-29T02:34:08;44.97;43.72;48.58;;
56099;Laerm;44276;49.534;6.378;2022-07-29T02:36:37;44.98;43.49;48.26;;
56099;Laerm;44276;49.534;6.378;2022-07-29T02:39:08;44.72;43.54;49.55;;
56099;Laerm;44276;49.534;6.378;2022-07-29T02:41:43;44.71;43.68;46.62;;
56099;Laerm;44276;49.534;6.378;2022-07-29T02:44:14;44.79;43.58;47.50;;
56099;Laerm;44276;49.534;6.378;2022-07-29T02:46:50;44.71;43.68;47.18;;
56099;Laerm;44276;49.534;6.378;2022-07-29T02:49:32;44.86;43.49;48.51;;
56099;Laerm;44276;49.534;6.378;2022-07-29T02:52:05;44.75;43.72;47.04;;
56099;Laerm;44276;49.534;6.378;2022-07-29T02:54:42;45.03;43.60;51.11;;
56099;Laerm;44276;49.534;6.378;2022-07-29T02:57:21;44.82;43.49;48.76;;
56099;Laerm;44276;49.534;6.378;2022-07-29T02:59:54;44.86;43.68;48.05;;
56099;Laerm;44276;49.534;6.378;2022-07-29T03:02:28;44.99;43.68;49.33;;
56099;Laerm;44276;49.534;6.378;2022-07-29T03:04:58;44.93;43.54;47.10;;
56099;Laerm;44276;49.534;6.378;2022-07-29T03:07:28;44.87;43.63;46.76;;
56099;Laerm;44276;49.534;6.378;2022-07-29T03:09:58;44.90;43.58;46.80;;
56099;Laerm;44276;49.534;6.378;2022-07-29T03:12:28;45.12;43.68;50.27;;
56099;Laerm;44276;49.534;6.378;2022-07-29T03:14:59;45.01;43.54;48.40;;
56099;Laerm;44276;49.534;6.378;2022-07-29T03:17:30;44.95;43.68;46.97;;
56099;Laerm;44276;49.534;6.378;2022-07-29T03:20:00;45.46;43.81;50.76;;
56099;Laerm;44276;49.534;6.378;2022-07-29T03:22:29;44.97;43.68;47.48;;
56099;Laerm;44276;49.534;6.378;2022-07-29T03:25:07;44.99;43.63;47.52;;
56099;Laerm;44276;49.534;6.378;2022-07-29T03:27:35;45.17;43.90;48.42;;
56099;Laerm;44276;49.534;6.378;2022-07-29T03:30:05;45.17;43.63;48.89;;
56099;Laerm;44276;49.534;6.378;2022-07-29T03:32:36;45.37;43.90;48.46;;
56099;Laerm;44276;49.534;6.378;2022-07-29T03:35:07;45.22;43.44;49.63;;
56099;Laerm;44276;49.534;6.378;2022-07-29T03:37:35;45.14;43.68;50.81;;
56099;Laerm;44276;49.534;6.378;2022-07-29T03:40:08;45.25;43.72;51.29;;
56099;Laerm;44276;49.534;6.378;2022-07-29T03:42:40;44.97;43.63;47.95;;
56099;Laerm;44276;49.534;6.378;2022-07-29T03:45:15;45.08;43.81;48.37;;
56099;Laerm;44276;49.534;6.378;2022-07-29T03:47:50;45.00;43.68;47.57;;
56099;Laerm;44276;49.534;6.378;2022-07-29T03:50:27;45.07;43.77;47.37;;
56099;Laerm;44276;49.534;6.378;2022-07-29T03:52:57;45.22;43.72;48.73;;
56099;Laerm;44276;49.534;6.378;2022-07-29T03:55:26;45.13;43.72;48.88;;
56099;Laerm;44276;49.534;6.378;2022-07-29T03:57:57;45.09;43.81;47.50;;
56099;Laerm;44276;49.534;6.378;2022-07-29T04:00:27;44.96;43.49;46.97;;
56099;Laerm;44276;49.534;6.378;2022-07-29T04:02:57;45.48;43.58;50.40;;
56099;Laerm;44276;49.534;6.378;2022-07-29T04:05:25;45.12;43.63;47.30;;
56099;Laerm;44276;49.534;6.378;2022-07-29T04:07:53;45.01;43.68;47.54;;
56099;Laerm;44276;49.534;6.378;2022-07-29T04:10:23;45.08;43.63;48.07;;
56099;Laerm;44276;49.534;6.378;2022-07-29T04:12:58;44.92;43.63;47.10;;
56099;Laerm;44276;49.534;6.378;2022-07-29T04:15:26;44.76;43.34;46.71;;
56099;Laerm;44276;49.534;6.378;2022-07-29T04:17:59;44.99;43.49;47.54;;
56099;Laerm;44276;49.534;6.378;2022-07-29T04:20:27;44.93;43.63;49.08;;
56099;Laerm;44276;49.534;6.378;2022-07-29T04:22:55;44.69;43.44;46.45;;
56099;Laerm;44276;49.534;6.378;2022-07-29T04:25:24;45.10;43.77;47.30;;
56099;Laerm;44276;49.534;6.378;2022-07-29T04:27:52;45.02;43.58;47.90;;
56099;Laerm;44276;49.534;6.378;2022-07-29T04:30:31;44.95;43.63;46.48;;
56099;Laerm;44276;49.534;6.378;2022-07-29T04:33:04;44.98;43.81;47.20;;
56099;Laerm;44276;49.534;6.378;2022-07-29T04:35:36;45.09;43.72;48.70;;
56099;Laerm;44276;49.534;6.378;2022-07-29T04:38:16;44.77;43.58;46.48;;
56099;Laerm;44276;49.534;6.378;2022-07-29T04:40:44;44.85;43.63;47.34;;
56099;Laerm;44276;49.534;6.378;2022-07-29T04:43:15;44.77;43.58;46.15;;
56099;Laerm;44276;49.534;6.378;2022-07-29T04:45:49;44.86;43.58;48.36;;
56099;Laerm;44276;49.534;6.378;2022-07-29T04:48:19;44.77;43.63;46.94;;
56099;Laerm;44276;49.534;6.378;2022-07-29T04:50:54;44.84;43.34;47.04;;
56099;Laerm;44276;49.534;6.378;2022-07-29T04:53:23;44.73;43.58;46.91;;
56099;Laerm;44276;49.534;6.378;2022-07-29T04:55:51;44.85;43.54;47.51;;
56099;Laerm;44276;49.534;6.378;2022-07-29T04:58:19;44.65;43.63;46.25;;
56099;Laerm;44276;49.534;6.378;2022-07-29T05:00:50;44.73;43.39;46.64;;
56099;Laerm;44276;49.534;6.378;2022-07-29T05:03:19;44.70;43.63;47.02;;
56099;Laerm;44276;49.534;6.378;2022-07-29T05:05:48;44.94;43.42;49.69;;
56099;Laerm;44276;49.534;6.378;2022-07-29T05:08:16;44.67;43.34;47.00;;
56099;Laerm;44276;49.534;6.378;2022-07-29T05:10:44;44.76;43.54;47.40;;
56099;Laerm;44276;49.534;6.378;2022-07-29T05:13:13;44.63;43.39;46.35;;
56099;Laerm;44276;49.534;6.378;2022-07-29T05:15:41;44.67;43.58;50.77;;
56099;Laerm;44276;49.534;6.378;2022-07-29T05:18:09;44.57;43.49;46.35;;
56099;Laerm;44276;49.534;6.378;2022-07-29T05:20:38;44.49;43.39;45.96;;
56099;Laerm;44276;49.534;6.378;2022-07-29T05:23:06;44.55;43.19;46.73;;
56099;Laerm;44276;49.534;6.378;2022-07-29T05:25:35;44.50;43.29;46.02;;
56099;Laerm;44276;49.534;6.378;2022-07-29T05:28:10;44.73;43.44;47.63;;
56099;Laerm;44276;49.534;6.378;2022-07-29T05:30:39;44.88;43.49;47.24;;
56099;Laerm;44276;49.534;6.378;2022-07-29T05:33:07;44.81;43.34;47.06;;
56099;Laerm;44276;49.534;6.378;2022-07-29T05:35:56;44.79;43.34;47.40;;
56099;Laerm;44276;49.534;6.378;2022-07-29T05:38:27;44.85;43.68;47.06;;
56099;Laerm;44276;49.534;6.378;2022-07-29T05:40:57;44.81;43.49;47.22;;
56099;Laerm;44276;49.534;6.378;2022-07-29T05:43:27;45.08;43.58;47.98;;
56099;Laerm;44276;49.534;6.378;2022-07-29T05:45:55;45.00;43.68;48.20;;
56099;Laerm;44276;49.534;6.378;2022-07-29T05:48:24;45.32;43.86;51.02;;
56099;Laerm;44276;49.534;6.378;2022-07-29T05:50:53;45.53;43.94;48.64;;
56099;Laerm;44276;49.534;6.378;2022-07-29T05:53:23;45.44;43.90;50.64;;
56099;Laerm;44276;49.534;6.378;2022-07-29T05:55:52;45.47;44.03;50.00;;
56099;Laerm;44276;49.534;6.378;2022-07-29T05:58:20;46.45;44.03;52.76;;
56099;Laerm;44276;49.534;6.378;2022-07-29T06:00:48;45.57;43.99;50.16;;
56099;Laerm;44276;49.534;6.378;2022-07-29T06:03:16;46.05;43.86;51.44;;
56099;Laerm;44276;49.534;6.378;2022-07-29T06:05:44;45.38;43.86;55.42;;
56099;Laerm;44276;49.534;6.378;2022-07-29T06:08:12;45.71;43.90;49.08;;
56099;Laerm;44276;49.534;6.378;2022-07-29T06:10:42;45.78;43.94;50.39;;
56099;Laerm;44276;49.534;6.378;2022-07-29T06:13:12;46.43;44.15;55.81;;
56099;Laerm;44276;49.534;6.378;2022-07-29T06:15:43;46.51;44.11;53.95;;
56099;Laerm;44276;49.534;6.378;2022-07-29T06:18:12;46.39;44.11;53.39;;
56099;Laerm;44276;49.534;6.378;2022-07-29T06:20:40;46.71;43.86;53.02;;
56099;Laerm;44276;49.534;6.378;2022-07-29T06:23:09;46.19;43.63;52.22;;
56099;Laerm;44276;49.534;6.378;2022-07-29T06:25:37;46.14;43.94;50.04;;
56099;Laerm;44276;49.534;6.378;2022-07-29T06:28:07;47.12;44.15;53.97;;
56099;Laerm;44276;49.534;6.378;2022-07-29T06:30:35;46.31;44.03;53.66;;
56099;Laerm;44276;49.534;6.378;2022-07-29T06:33:03;45.95;43.90;53.04;;
56099;Laerm;44276;49.534;6.378;2022-07-29T06:35:33;46.69;43.77;52.68;;
56099;Laerm;44276;49.534;6.378;2022-07-29T06:38:08;46.23;43.99;52.26;;
56099;Laerm;44276;49.534;6.378;2022-07-29T06:40:56;46.42;43.86;52.37;;
56099;Laerm;44276;49.534;6.378;2022-07-29T06:43:31;46.30;43.94;51.68;;
56099;Laerm;44276;49.534;6.378;2022-07-29T06:46:03;45.83;43.77;54.52;;
56099;Laerm;44276;49.534;6.378;2022-07-29T06:48:33;47.26;43.89;57.18;;
56099;Laerm;44276;49.534;6.378;2022-07-29T06:51:03;46.85;43.68;53.40;;
56099;Laerm;44276;49.534;6.378;2022-07-29T06:53:33;46.99;43.49;60.42;;
56099;Laerm;44276;49.534;6.378;2022-07-29T06:56:02;45.93;43.49;55.80;;
56099;Laerm;44276;49.534;6.378;2022-07-29T06:58:32;46.07;43.54;50.89;;
56099;Laerm;44276;49.534;6.378;2022-07-29T07:01:03;47.31;43.72;58.36;;
56099;Laerm;44276;49.534;6.378;2022-07-29T07:03:32;46.81;43.49;55.05;;
56099;Laerm;44276;49.534;6.378;2022-07-29T07:06:00;45.95;43.63;58.32;;
56099;Laerm;44276;49.534;6.378;2022-07-29T07:08:29;46.47;43.63;56.74;;
56099;Laerm;44276;49.534;6.378;2022-07-29T07:10:57;45.94;43.81;49.60;;
56099;Laerm;44276;49.534;6.378;2022-07-29T07:13:26;45.93;43.54;51.49;;
56099;Laerm;44276;49.534;6.378;2022-07-29T07:15:56;45.54;43.34;49.23;;
56099;Laerm;44276;49.534;6.378;2022-07-29T07:18:24;46.57;43.39;53.59;;
56099;Laerm;44276;49.534;6.378;2022-07-29T07:20:52;46.73;42.93;58.09;;
56099;Laerm;44276;49.534;6.378;2022-07-29T07:23:20;45.52;42.82;50.34;;
56099;Laerm;44276;49.534;6.378;2022-07-29T07:25:48;45.93;42.76;54.67;;
56099;Laerm;44276;49.534;6.378;2022-07-29T07:28:16;48.40;42.82;56.73;;
56099;Laerm;44276;49.534;6.378;2022-07-29T07:30:51;46.04;42.59;52.86;;
56099;Laerm;44276;49.534;6.378;2022-07-29T07:33:20;44.87;42.16;51.57;;
56099;Laerm;44276;49.534;6.378;2022-07-29T07:35:48;45.91;42.03;54.08;;
56099;Laerm;44276;49.534;6.378;2022-07-29T07:38:16;46.49;41.75;55.79;;
56099;Laerm;44276;49.534;6.378;2022-07-29T07:40:45;47.56;42.09;57.11;;
56099;Laerm;44276;49.534;6.378;2022-07-29T07:43:13;46.00;41.53;56.78;;
56099;Laerm;44276;49.534;6.378;2022-07-29T07:45:41;47.57;41.61;59.28;;
56099;Laerm;44276;49.534;6.378;2022-07-29T07:48:10;52.41;41.96;72.28;;
56099;Laerm;44276;49.534;6.378;2022-07-29T07:50:39;44.15;41.89;48.32;;
56099;Laerm;44276;49.534;6.378;2022-07-29T07:53:07;46.55;41.96;54.27;;
56099;Laerm;44276;49.534;6.378;2022-07-29T07:55:40;47.45;41.68;54.79;;
56099;Laerm;44276;49.534;6.378;2022-07-29T07:58:29;46.53;42.35;54.54;;
56099;Laerm;44276;49.534;6.378;2022-07-29T08:00:57;46.15;41.82;53.86;;
56099;Laerm;44276;49.534;6.378;2022-07-29T08:03:25;46.07;41.82;54.25;;
56099;Laerm;44276;49.534;6.378;2022-07-29T08:05:55;46.55;41.82;53.07;;
56099;Laerm;44276;49.534;6.378;2022-07-29T08:08:24;46.56;41.96;57.81;;
56099;Laerm;44276;49.534;6.378;2022-07-29T08:10:52;47.40;41.68;59.24;;
56099;Laerm;44276;49.534;6.378;2022-07-29T08:13:22;46.09;41.46;56.26;;
56099;Laerm;44276;49.534;6.378;2022-07-29T08:15:51;48.21;41.68;63.46;;
56099;Laerm;44276;49.534;6.378;2022-07-29T08:18:26;45.41;40.71;53.44;;
56099;Laerm;44276;49.534;6.378;2022-07-29T08:20:57;47.74;40.80;58.81;;
56099;Laerm;44276;49.534;6.378;2022-07-29T08:23:26;45.82;41.46;55.53;;
56099;Laerm;44276;49.534;6.378;2022-07-29T08:26:15;47.25;41.46;58.11;;
56099;Laerm;44276;49.534;6.378;2022-07-29T08:28:45;45.23;41.38;51.97;;
56099;Laerm;44276;49.534;6.378;2022-07-29T08:31:16;47.67;40.80;61.68;;
56099;Laerm;44276;49.534;6.378;2022-07-29T08:33:45;46.08;40.03;55.87;;
56099;Laerm;44276;49.534;6.378;2022-07-29T08:36:14;44.70;40.89;51.67;;
56099;Laerm;44276;49.534;6.378;2022-07-29T08:38:42;45.06;40.43;59.22;;
56099;Laerm;44276;49.534;6.378;2022-07-29T08:41:10;45.30;39.70;52.35;;
56099;Laerm;44276;49.534;6.378;2022-07-29T08:43:40;46.53;41.03;58.68;;
56099;Laerm;44276;49.534;6.378;2022-07-29T08:46:08;47.32;40.03;55.89;;
56099;Laerm;44276;49.534;6.378;2022-07-29T08:48:37;45.64;40.03;54.93;;
56099;Laerm;44276;49.534;6.378;2022-07-29T08:51:07;47.60;40.62;57.67;;
56099;Laerm;44276;49.534;6.378;2022-07-29T08:53:40;45.85;40.43;55.15;;
56099;Laerm;44276;49.534;6.378;2022-07-29T08:56:12;49.21;40.98;61.80;;
56099;Laerm;44276;49.534;6.378;2022-07-29T08:58:41;46.94;40.80;59.55;;
56099;Laerm;44276;49.534;6.378;2022-07-29T09:01:21;47.73;41.06;62.38;;
56099;Laerm;44276;49.534;6.378;2022-07-29T09:04:11;48.64;40.23;58.84;;
56099;Laerm;44276;49.534;6.378;2022-07-29T09:06:45;45.65;40.23;53.52;;
56099;Laerm;44276;49.534;6.378;2022-07-29T09:09:15;47.85;41.61;58.13;;
56099;Laerm;44276;49.534;6.378;2022-07-29T09:11:43;48.49;41.53;60.07;;
56099;Laerm;44276;49.534;6.378;2022-07-29T09:14:12;47.72;40.13;58.51;;
56099;Laerm;44276;49.534;6.378;2022-07-29T09:16:47;47.84;39.92;60.93;;
56099;Laerm;44276;49.534;6.378;2022-07-29T09:19:29;49.27;41.38;65.97;;
56099;Laerm;44276;49.534;6.378;2022-07-29T09:21:59;47.54;41.06;58.06;;
56099;Laerm;44276;49.534;6.378;2022-07-29T09:24:44;47.88;41.38;57.16;;
56099;Laerm;44276;49.534;6.378;2022-07-29T09:27:23;50.58;41.82;64.84;;
56099;Laerm;44276;49.534;6.378;2022-07-29T09:29:57;48.43;39.58;59.70;;
56099;Laerm;44276;49.534;6.378;2022-07-29T09:32:27;47.84;39.58;59.07;;
56099;Laerm;44276;49.534;6.378;2022-07-29T09:35:21;47.77;39.92;57.80;;
56099;Laerm;44276;49.534;6.378;2022-07-29T09:37:50;47.96;40.33;57.57;;
56099;Laerm;44276;49.534;6.378;2022-07-29T09:40:22;47.07;40.13;55.51;;
56099;Laerm;44276;49.534;6.378;2022-07-29T09:42:51;49.77;39.92;64.08;;
56099;Laerm;44276;49.534;6.378;2022-07-29T09:45:30;49.49;40.43;59.86;;
56099;Laerm;44276;49.534;6.378;2022-07-29T09:48:12;47.71;39.81;58.67;;
56099;Laerm;44276;49.534;6.378;2022-07-29T09:50:42;49.08;38.81;65.11;;
56099;Laerm;44276;49.534;6.378;2022-07-29T09:53:11;47.80;41.06;58.16;;
56099;Laerm;44276;49.534;6.378;2022-07-29T09:55:48;45.63;39.70;55.44;;
56099;Laerm;44276;49.534;6.378;2022-07-29T09:58:19;48.93;40.53;57.74;;
56099;Laerm;44276;49.534;6.378;2022-07-29T10:00:49;45.16;39.81;54.19;;
56099;Laerm;44276;49.534;6.378;2022-07-29T10:03:18;47.71;39.81;57.54;;
56099;Laerm;44276;49.534;6.378;2022-07-29T10:06:07;47.39;40.23;59.34;;
56099;Laerm;44276;49.534;6.378;2022-07-29T10:08:35;46.45;39.92;55.47;;
56099;Laerm;44276;49.534;6.378;2022-07-29T10:11:13;45.95;39.81;57.52;;
56099;Laerm;44276;49.534;6.378;2022-07-29T10:13:43;46.56;39.34;58.01;;
56099;Laerm;44276;49.534;6.378;2022-07-29T10:16:12;47.38;39.34;56.02;;
56099;Laerm;44276;49.534;6.378;2022-07-29T10:18:42;49.12;40.03;64.32;;
56099;Laerm;44276;49.534;6.378;2022-07-29T10:21:12;50.80;40.53;64.50;;
56099;Laerm;44276;49.534;6.378;2022-07-29T10:24:01;47.92;40.71;56.88;;
56099;Laerm;44276;49.534;6.378;2022-07-29T10:26:31;45.28;38.95;52.97;;
56099;Laerm;44276;49.534;6.378;2022-07-29T10:29:01;47.84;39.58;61.36;;
56099;Laerm;44276;49.534;6.378;2022-07-29T10:31:39;47.93;39.58;64.21;;
56099;Laerm;44276;49.534;6.378;2022-07-29T10:34:23;46.22;39.58;55.69;;
56099;Laerm;44276;49.534;6.378;2022-07-29T10:37:05;46.99;39.70;57.93;;
56099;Laerm;44276;49.534;6.378;2022-07-29T10:39:50;48.64;40.43;59.18;;
56099;Laerm;44276;49.534;6.378;2022-07-29T10:42:27;47.44;39.34;56.82;;
56099;Laerm;44276;49.534;6.378;2022-07-29T10:45:02;46.00;39.81;54.89;;
56099;Laerm;44276;49.534;6.378;2022-07-29T10:47:31;48.30;39.78;58.75;;
56099;Laerm;44276;49.534;6.378;2022-07-29T10:50:03;47.23;39.21;60.05;;
56099;Laerm;44276;49.534;6.378;2022-07-29T10:52:54;47.48;39.58;57.46;;
56099;Laerm;44276;49.534;6.378;2022-07-29T10:55:35;46.53;39.08;54.68;;
56099;Laerm;44276;49.534;6.378;2022-07-29T10:58:16;50.58;40.53;69.86;;
56099;Laerm;44276;49.534;6.378;2022-07-29T11:00:46;50.17;40.71;64.81;;
56099;Laerm;44276;49.534;6.378;2022-07-29T11:03:43;50.93;39.81;67.18;;
56099;Laerm;44276;49.534;6.378;2022-07-29T11:06:16;45.78;38.67;54.52;;
56099;Laerm;44276;49.534;6.378;2022-07-29T11:09:15;47.41;39.21;59.33;;
56099;Laerm;44276;49.534;6.378;2022-07-29T11:11:46;47.40;40.62;57.99;;
56099;Laerm;44276;49.534;6.378;2022-07-29T11:15:00;48.53;40.33;61.37;;
56099;Laerm;44276;49.534;6.378;2022-07-29T11:17:29;49.52;39.08;61.98;;
56099;Laerm;44276;49.534;6.378;2022-07-29T11:20:33;49.05;40.03;64.65;;
56099;Laerm;44276;49.534;6.378;2022-07-29T11:23:26;48.77;41.30;59.50;;
56099;Laerm;44276;49.534;6.378;2022-07-29T11:26:18;48.00;40.13;58.40;;
56099;Laerm;44276;49.534;6.378;2022-07-29T11:29:04;48.13;40.80;56.42;;
56099;Laerm;44276;49.534;6.378;2022-07-29T11:31:40;47.82;40.03;60.58;;
56099;Laerm;44276;49.534;6.378;2022-07-29T11:34:23;46.48;39.92;54.73;;
56099;Laerm;44276;49.534;6.378;2022-07-29T11:37:19;49.92;40.03;62.17;;
56099;Laerm;44276;49.534;6.378;2022-07-29T11:40:15;49.61;39.58;65.34;;
56099;Laerm;44276;49.534;6.378;2022-07-29T11:42:49;46.02;39.92;58.12;;
56099;Laerm;44276;49.534;6.378;2022-07-29T11:45:24;45.99;39.34;59.58;;
56099;Laerm;44276;49.534;6.378;2022-07-29T11:48:17;45.56;39.34;55.63;;
56099;Laerm;44276;49.534;6.378;2022-07-29T11:50:58;43.72;39.34;49.88;;
56099;Laerm;44276;49.534;6.378;2022-07-29T11:53:27;48.46;40.03;64.88;;
56099;Laerm;44276;49.534;6.378;2022-07-29T11:56:00;50.24;38.95;64.79;;
56099;Laerm;44276;49.534;6.378;2022-07-29T11:58:30;46.62;39.81;59.38;;
56099;Laerm;44276;49.534;6.378;2022-07-29T12:01:00;48.91;40.03;60.16;;
56099;Laerm;44276;49.534;6.378;2022-07-29T12:04:03;48.44;38.95;62.05;;
56099;Laerm;44276;49.534;6.378;2022-07-29T12:06:32;46.33;38.52;58.40;;
56099;Laerm;44276;49.534;6.378;2022-07-29T12:09:07;46.58;39.46;58.99;;
56099;Laerm;44276;49.534;6.378;2022-07-29T12:11:40;44.63;39.08;54.71;;
56099;Laerm;44276;49.534;6.378;2022-07-29T12:14:26;46.79;39.08;55.84;;
56099;Laerm;44276;49.534;6.378;2022-07-29T12:16:54;45.29;38.95;51.95;;
56099;Laerm;44276;49.534;6.378;2022-07-29T12:19:26;47.72;39.70;62.26;;
56099;Laerm;44276;49.534;6.378;2022-07-29T12:21:57;44.92;39.81;53.79;;
56099;Laerm;44276;49.534;6.378;2022-07-29T12:24:43;43.74;38.81;52.50;;
56099;Laerm;44276;49.534;6.378;2022-07-29T12:27:17;46.62;39.58;56.89;;
56099;Laerm;44276;49.534;6.378;2022-07-29T12:29:56;47.01;39.57;58.27;;
56099;Laerm;44276;49.534;6.378;2022-07-29T12:32:32;48.93;38.67;60.27;;
56099;Laerm;44276;49.534;6.378;2022-07-29T12:35:04;49.85;38.95;63.35;;
56099;Laerm;44276;49.534;6.378;2022-07-29T12:37:33;49.65;39.81;59.18;;
56099;Laerm;44276;49.534;6.378;2022-07-29T12:40:11;47.47;37.32;64.79;;
56099;Laerm;44276;49.534;6.378;2022-07-29T12:42:40;52.08;39.21;64.40;;
56099;Laerm;44276;49.534;6.378;2022-07-29T12:45:09;48.14;41.14;59.28;;
56099;Laerm;44276;49.534;6.378;2022-07-29T12:47:51;48.96;39.08;60.93;;
56099;Laerm;44276;49.534;6.378;2022-07-29T12:50:21;49.18;39.58;59.89;;
56099;Laerm;44276;49.534;6.378;2022-07-29T12:52:52;46.99;38.67;61.60;;
56099;Laerm;44276;49.534;6.378;2022-07-29T12:55:39;48.00;38.21;55.23;;
56099;Laerm;44276;49.534;6.378;2022-07-29T12:58:08;48.46;39.08;59.86;;
56099;Laerm;44276;49.534;6.378;2022-07-29T13:00:36;47.18;38.52;59.44;;
56099;Laerm;44276;49.534;6.378;2022-07-29T13:03:04;47.55;39.81;59.28;;
56099;Laerm;44276;49.534;6.378;2022-07-29T13:05:43;51.13;40.53;62.88;;
56099;Laerm;44276;49.534;6.378;2022-07-29T13:08:17;47.88;40.33;59.88;;
56099;Laerm;44276;49.534;6.378;2022-07-29T13:10:48;50.68;40.53;65.16;;
56099;Laerm;44276;49.534;6.378;2022-07-29T13:13:16;49.88;38.52;66.23;;
56099;Laerm;44276;49.534;6.378;2022-07-29T13:15:45;47.29;39.81;59.92;;
56099;Laerm;44276;49.534;6.378;2022-07-29T13:18:28;49.13;40.43;59.55;;
56099;Laerm;44276;49.534;6.378;2022-07-29T13:21:11;47.69;38.60;58.44;;
56099;Laerm;44276;49.534;6.378;2022-07-29T13:23:41;47.39;41.11;53.63;;
56099;Laerm;44276;49.534;6.378;2022-07-29T13:26:11;44.58;36.91;51.42;;
56099;Laerm;44276;49.534;6.378;2022-07-29T13:28:39;45.78;37.12;52.41;;
56099;Laerm;44276;49.534;6.378;2022-07-29T13:31:10;47.93;40.33;57.41;;
56099;Laerm;44276;49.534;6.378;2022-07-29T13:33:38;47.93;40.23;56.43;;
56099;Laerm;44276;49.534;6.378;2022-07-29T13:36:08;47.02;38.37;56.94;;
56099;Laerm;44276;49.534;6.378;2022-07-29T13:38:36;47.76;39.58;56.73;;
56099;Laerm;44276;49.534;6.378;2022-07-29T13:41:05;48.74;38.05;60.18;;
56099;Laerm;44276;49.534;6.378;2022-07-29T13:43:33;47.04;38.81;57.71;;
56099;Laerm;44276;49.534;6.378;2022-07-29T13:46:01;48.02;39.70;60.35;;
56099;Laerm;44276;49.534;6.378;2022-07-29T13:48:29;47.86;39.78;58.09;;
56099;Laerm;44276;49.534;6.378;2022-07-29T13:51:00;47.54;38.67;56.22;;
56099;Laerm;44276;49.534;6.378;2022-07-29T13:53:30;51.00;39.21;69.59;;
56099;Laerm;44276;49.534;6.378;2022-07-29T13:55:58;47.46;39.81;57.82;;
56099;Laerm;44276;49.534;6.378;2022-07-29T13:58:26;49.33;37.70;64.73;;
56099;Laerm;44276;49.534;6.378;2022-07-29T14:00:55;47.56;39.21;55.96;;
56099;Laerm;44276;49.534;6.378;2022-07-29T14:03:24;46.53;39.23;51.56;;
56099;Laerm;44276;49.534;6.378;2022-07-29T14:05:52;46.61;38.95;59.63;;
56099;Laerm;44276;49.534;6.378;2022-07-29T14:08:20;49.46;40.23;60.50;;
56099;Laerm;44276;49.534;6.378;2022-07-29T14:10:51;46.02;38.95;52.00;;
56099;Laerm;44276;49.534;6.378;2022-07-29T14:13:19;48.17;40.43;59.65;;
56099;Laerm;44276;49.534;6.378;2022-07-29T14:15:51;48.82;40.88;56.60;;